sensor_id;sensor_type;location;lat;lon;timestamp;temperature;humidity
54260;DHT22;40172;53.022;7.012;2022-12-20T00:01:18;8.30;99.90
54260;DHT22;40172;53.022;7.012;2022-12-20T00:03:44;8.30;99.90
54260;DHT22;40172;53.022;7.012;2022-12-20T00:06:11;8.20;99.90
54260;DHT22;40172;53.022;7.012;2022-12-20T00:08:38;8.30;99.90
54260;DHT22;40172;53.022;7.012;2022-12-20T00:11:05;8.20;99.90
54260;DHT22;40172;53.022;7.012;2022-12-20T00:13:31;8.20;99.90
54260;DHT22;40172;53.022;7.012;2022-12-20T00:18:34;8.20;99.90
54260;DHT22;40172;53.022;7.012;2022-12-20T00:21:01;8.20;99.90
54260;DHT22;40172;53.022;7.012;2022-12-20T00:23:27;8.10;99.90
54260;DHT22;40172;53.022;7.012;2022-12-20T00:26:02;8.20;99.90
54260;DHT22;40172;53.022;7.012;2022-12-20T00:28:29;8.20;99.90
54260;DHT22;40172;53.022;7.012;2022-12-20T00:30:55;8.20;99.90
54260;DHT22;40172;53.022;7.012;2022-12-20T00:33:20;8.20;99.90
54260;DHT22;40172;53.022;7.012;2022-12-20T00:35:46;8.20;99.90
54260;DHT22;40172;53.022;7.012;2022-12-20T00:38:11;8.20;99.90
54260;DHT22;40172;53.022;7.012;2022-12-20T00:40:37;8.10;99.90
54260;DHT22;40172;53.022;7.012;2022-12-20T00:43:02;8.20;99.90
54260;DHT22;40172;53.022;7.012;2022-12-20T00:45:28;8.20;99.90
54260;DHT22;40172;53.022;7.012;2022-12-20T00:47:54;8.20;99.90
54260;DHT22;40172;53.022;7.012;2022-12-20T00:50:19;8.30;99.90
54260;DHT22;40172;53.022;7.012;2022-12-20T00:52:45;8.30;99.90
54260;DHT22;40172;53.022;7.012;2022-12-20T00:55:10;8.40;99.90
54260;DHT22;40172;53.022;7.012;2022-12-20T00:57:36;8.50;99.90
54260;DHT22;40172;53.022;7.012;2022-12-20T01:00:02;8.50;99.90
54260;DHT22;40172;53.022;7.012;2022-12-20T01:02:28;8.60;99.90
54260;DHT22;40172;53.022;7.012;2022-12-20T01:04:53;8.60;99.90
54260;DHT22;40172;53.022;7.012;2022-12-20T01:07:19;8.60;99.90
54260;DHT22;40172;53.022;7.012;2022-12-20T01:09:47;8.60;99.90
54260;DHT22;40172;53.022;7.012;2022-12-20T01:12:13;8.60;99.90
54260;DHT22;40172;53.022;7.012;2022-12-20T01:14:39;8.60;99.90
54260;DHT22;40172;53.022;7.012;2022-12-20T01:17:04;8.60;99.90
54260;DHT22;40172;53.022;7.012;2022-12-20T01:19:30;8.60;99.90
54260;DHT22;40172;53.022;7.012;2022-12-20T01:21:56;8.70;99.90
54260;DHT22;40172;53.022;7.012;2022-12-20T01:24:21;8.70;99.90
54260;DHT22;40172;53.022;7.012;2022-12-20T01:26:47;8.70;99.90
54260;DHT22;40172;53.022;7.012;2022-12-20T01:29:13;8.60;99.90
54260;DHT22;40172;53.022;7.012;2022-12-20T01:31:38;8.60;99.90
54260;DHT22;40172;53.022;7.012;2022-12-20T01:34:04;8.60;99.90
54260;DHT22;40172;53.022;7.012;2022-12-20T01:36:34;8.60;99.90
54260;DHT22;40172;53.022;7.012;2022-12-20T01:39:14;8.60;99.90
54260;DHT22;40172;53.022;7.012;2022-12-20T01:41:41;8.70;99.90
54260;DHT22;40172;53.022;7.012;2022-12-20T01:46:42;8.60;99.90
54260;DHT22;40172;53.022;7.012;2022-12-20T01:49:17;8.60;99.90
54260;DHT22;40172;53.022;7.012;2022-12-20T01:52:03;8.60;99.90
54260;DHT22;40172;53.022;7.012;2022-12-20T01:54:38;8.60;99.90
54260;DHT22;40172;53.022;7.012;2022-12-20T01:57:33;8.60;99.90
54260;DHT22;40172;53.022;7.012;2022-12-20T02:00:00;8.60;99.90
54260;DHT22;40172;53.022;7.012;2022-12-20T02:02:26;8.60;99.90
54260;DHT22;40172;53.022;7.012;2022-12-20T02:04:52;8.60;99.90
54260;DHT22;40172;53.022;7.012;2022-12-20T02:07:22;8.60;99.90
54260;DHT22;40172;53.022;7.012;2022-12-20T02:09:49;8.60;99.90
54260;DHT22;40172;53.022;7.012;2022-12-20T02:12:19;8.60;99.90
54260;DHT22;40172;53.022;7.012;2022-12-20T02:14:58;8.60;99.90
54260;DHT22;40172;53.022;7.012;2022-12-20T02:17:51;8.60;99.90
54260;DHT22;40172;53.022;7.012;2022-12-20T02:29:12;8.60;99.90
54260;DHT22;40172;53.022;7.012;2022-12-20T02:32:16;8.60;99.90
54260;DHT22;40172;53.022;7.012;2022-12-20T02:34:44;8.70;99.90
54260;DHT22;40172;53.022;7.012;2022-12-20T02:37:11;8.60;99.90
54260;DHT22;40172;53.022;7.012;2022-12-20T02:39:38;8.70;99.90
54260;DHT22;40172;53.022;7.012;2022-12-20T02:42:16;8.70;99.90
54260;DHT22;40172;53.022;7.012;2022-12-20T02:44:52;8.70;99.90
54260;DHT22;40172;53.022;7.012;2022-12-20T02:47:42;8.70;99.90
54260;DHT22;40172;53.022;7.012;2022-12-20T02:50:10;8.70;99.90
54260;DHT22;40172;53.022;7.012;2022-12-20T02:52:38;8.70;99.90
54260;DHT22;40172;53.022;7.012;2022-12-20T02:55:04;8.80;99.90
54260;DHT22;40172;53.022;7.012;2022-12-20T02:57:51;8.70;99.90
54260;DHT22;40172;53.022;7.012;2022-12-20T03:00:20;8.80;99.90
54260;DHT22;40172;53.022;7.012;2022-12-20T03:02:47;8.80;99.90
54260;DHT22;40172;53.022;7.012;2022-12-20T03:05:35;8.80;99.90
54260;DHT22;40172;53.022;7.012;2022-12-20T03:08:02;8.80;99.90
54260;DHT22;40172;53.022;7.012;2022-12-20T03:10:28;8.90;99.90
54260;DHT22;40172;53.022;7.012;2022-12-20T03:12:54;8.90;99.90
54260;DHT22;40172;53.022;7.012;2022-12-20T03:15:19;8.80;99.90
54260;DHT22;40172;53.022;7.012;2022-12-20T03:17:45;8.90;99.90
54260;DHT22;40172;53.022;7.012;2022-12-20T03:20:11;8.80;99.90
54260;DHT22;40172;53.022;7.012;2022-12-20T03:22:37;8.90;99.90
54260;DHT22;40172;53.022;7.012;2022-12-20T03:25:03;8.80;99.90
54260;DHT22;40172;53.022;7.012;2022-12-20T03:27:29;8.80;99.90
54260;DHT22;40172;53.022;7.012;2022-12-20T03:29:55;8.80;99.90
54260;DHT22;40172;53.022;7.012;2022-12-20T03:32:21;8.80;99.90
54260;DHT22;40172;53.022;7.012;2022-12-20T03:34:47;8.70;99.90
54260;DHT22;40172;53.022;7.012;2022-12-20T03:37:12;8.80;99.90
54260;DHT22;40172;53.022;7.012;2022-12-20T03:39:38;8.70;99.90
54260;DHT22;40172;53.022;7.012;2022-12-20T03:42:03;8.70;99.90
54260;DHT22;40172;53.022;7.012;2022-12-20T03:44:29;8.70;99.90
54260;DHT22;40172;53.022;7.012;2022-12-20T03:46:55;8.80;99.90
54260;DHT22;40172;53.022;7.012;2022-12-20T03:49:20;8.70;99.90
54260;DHT22;40172;53.022;7.012;2022-12-20T03:51:46;8.60;99.90
54260;DHT22;40172;53.022;7.012;2022-12-20T03:54:11;8.60;99.90
54260;DHT22;40172;53.022;7.012;2022-12-20T03:56:37;8.60;99.90
54260;DHT22;40172;53.022;7.012;2022-12-20T03:59:03;8.60;99.90
54260;DHT22;40172;53.022;7.012;2022-12-20T04:01:29;8.50;99.90
54260;DHT22;40172;53.022;7.012;2022-12-20T04:03:55;8.60;99.90
54260;DHT22;40172;53.022;7.012;2022-12-20T04:06:22;8.60;99.90
54260;DHT22;40172;53.022;7.012;2022-12-20T04:08:48;8.60;99.90
54260;DHT22;40172;53.022;7.012;2022-12-20T04:11:14;8.50;99.90
54260;DHT22;40172;53.022;7.012;2022-12-20T04:13:48;8.60;99.90
54260;DHT22;40172;53.022;7.012;2022-12-20T04:16:15;8.60;99.90
54260;DHT22;40172;53.022;7.012;2022-12-20T04:18:41;8.60;99.90
54260;DHT22;40172;53.022;7.012;2022-12-20T04:21:10;8.70;99.90
54260;DHT22;40172;53.022;7.012;2022-12-20T04:23:37;8.60;99.90
54260;DHT22;40172;53.022;7.012;2022-12-20T04:26:04;8.70;99.90
54260;DHT22;40172;53.022;7.012;2022-12-20T04:28:31;8.60;99.90
54260;DHT22;40172;53.022;7.012;2022-12-20T04:30:57;8.70;99.90
54260;DHT22;40172;53.022;7.012;2022-12-20T04:33:23;8.80;99.90
54260;DHT22;40172;53.022;7.012;2022-12-20T04:35:49;8.70;99.90
54260;DHT22;40172;53.022;7.012;2022-12-20T04:38:16;8.60;99.90
54260;DHT22;40172;53.022;7.012;2022-12-20T04:40:42;8.80;99.90
54260;DHT22;40172;53.022;7.012;2022-12-20T04:43:08;8.80;99.90
54260;DHT22;40172;53.022;7.012;2022-12-20T04:45:34;8.70;99.90
54260;DHT22;40172;53.022;7.012;2022-12-20T04:48:00;8.80;99.90
54260;DHT22;40172;53.022;7.012;2022-12-20T04:50:25;8.80;99.90
54260;DHT22;40172;53.022;7.012;2022-12-20T04:52:51;8.70;99.90
54260;DHT22;40172;53.022;7.012;2022-12-20T04:55:38;8.80;99.90
54260;DHT22;40172;53.022;7.012;2022-12-20T04:58:05;8.70;99.90
54260;DHT22;40172;53.022;7.012;2022-12-20T05:00:31;8.70;99.90
54260;DHT22;40172;53.022;7.012;2022-12-20T05:02:58;8.70;99.90
54260;DHT22;40172;53.022;7.012;2022-12-20T05:05:23;8.70;99.90
54260;DHT22;40172;53.022;7.012;2022-12-20T05:07:49;8.70;99.90
54260;DHT22;40172;53.022;7.012;2022-12-20T05:10:15;8.70;99.90
54260;DHT22;40172;53.022;7.012;2022-12-20T05:12:41;8.70;99.90
54260;DHT22;40172;53.022;7.012;2022-12-20T05:15:07;8.80;99.90
54260;DHT22;40172;53.022;7.012;2022-12-20T05:17:33;8.80;99.90
54260;DHT22;40172;53.022;7.012;2022-12-20T05:19:58;8.90;99.90
54260;DHT22;40172;53.022;7.012;2022-12-20T05:22:25;8.90;99.90
54260;DHT22;40172;53.022;7.012;2022-12-20T05:25:20;8.90;99.90
54260;DHT22;40172;53.022;7.012;2022-12-20T05:28:04;8.90;99.90
54260;DHT22;40172;53.022;7.012;2022-12-20T05:30:30;8.90;99.90
54260;DHT22;40172;53.022;7.012;2022-12-20T05:32:55;8.90;99.90
54260;DHT22;40172;53.022;7.012;2022-12-20T05:35:21;9.00;99.90
54260;DHT22;40172;53.022;7.012;2022-12-20T05:37:46;9.00;99.90
54260;DHT22;40172;53.022;7.012;2022-12-20T05:40:12;9.10;99.90
54260;DHT22;40172;53.022;7.012;2022-12-20T05:42:38;9.10;99.90
54260;DHT22;40172;53.022;7.012;2022-12-20T05:45:05;9.20;99.90
54260;DHT22;40172;53.022;7.012;2022-12-20T05:47:31;9.20;99.90
54260;DHT22;40172;53.022;7.012;2022-12-20T05:49:58;9.30;99.90
54260;DHT22;40172;53.022;7.012;2022-12-20T05:52:24;9.20;99.90
54260;DHT22;40172;53.022;7.012;2022-12-20T05:54:50;9.20;99.90
54260;DHT22;40172;53.022;7.012;2022-12-20T05:57:16;9.30;99.90
54260;DHT22;40172;53.022;7.012;2022-12-20T05:59:42;9.30;99.90
54260;DHT22;40172;53.022;7.012;2022-12-20T06:02:07;9.30;99.90
54260;DHT22;40172;53.022;7.012;2022-12-20T06:04:35;9.30;99.90
54260;DHT22;40172;53.022;7.012;2022-12-20T06:07:01;9.30;99.90
54260;DHT22;40172;53.022;7.012;2022-12-20T06:09:26;9.30;99.90
54260;DHT22;40172;53.022;7.012;2022-12-20T06:11:52;9.50;99.90
54260;DHT22;40172;53.022;7.012;2022-12-20T06:14:17;9.40;99.90
54260;DHT22;40172;53.022;7.012;2022-12-20T06:16:43;9.50;99.90
54260;DHT22;40172;53.022;7.012;2022-12-20T06:19:08;9.40;99.90
54260;DHT22;40172;53.022;7.012;2022-12-20T06:21:34;9.50;99.90
54260;DHT22;40172;53.022;7.012;2022-12-20T06:23:59;9.40;99.90
54260;DHT22;40172;53.022;7.012;2022-12-20T06:26:26;9.40;99.90
54260;DHT22;40172;53.022;7.012;2022-12-20T06:28:52;9.30;99.90
54260;DHT22;40172;53.022;7.012;2022-12-20T06:31:19;9.30;99.90
54260;DHT22;40172;53.022;7.012;2022-12-20T06:33:44;9.40;99.90
54260;DHT22;40172;53.022;7.012;2022-12-20T06:36:10;9.30;99.90
54260;DHT22;40172;53.022;7.012;2022-12-20T06:38:36;9.40;99.90
54260;DHT22;40172;53.022;7.012;2022-12-20T06:41:02;9.50;99.90
54260;DHT22;40172;53.022;7.012;2022-12-20T06:43:27;9.50;99.90
54260;DHT22;40172;53.022;7.012;2022-12-20T06:45:53;9.60;99.90
54260;DHT22;40172;53.022;7.012;2022-12-20T06:48:19;9.60;99.90
54260;DHT22;40172;53.022;7.012;2022-12-20T06:50:50;9.60;99.90
54260;DHT22;40172;53.022;7.012;2022-12-20T06:53:15;9.60;99.90
54260;DHT22;40172;53.022;7.012;2022-12-20T06:55:41;9.60;99.90
54260;DHT22;40172;53.022;7.012;2022-12-20T06:58:07;9.70;99.90
54260;DHT22;40172;53.022;7.012;2022-12-20T07:00:32;9.60;99.90
54260;DHT22;40172;53.022;7.012;2022-12-20T07:02:58;9.60;99.90
54260;DHT22;40172;53.022;7.012;2022-12-20T07:05:24;9.70;99.90
54260;DHT22;40172;53.022;7.012;2022-12-20T07:07:49;9.70;99.90
54260;DHT22;40172;53.022;7.012;2022-12-20T07:10:15;9.70;99.90
54260;DHT22;40172;53.022;7.012;2022-12-20T07:12:41;9.60;99.90
54260;DHT22;40172;53.022;7.012;2022-12-20T07:15:07;9.60;99.90
54260;DHT22;40172;53.022;7.012;2022-12-20T07:17:33;9.70;99.90
54260;DHT22;40172;53.022;7.012;2022-12-20T07:19:59;9.60;99.90
54260;DHT22;40172;53.022;7.012;2022-12-20T07:22:25;9.60;99.90
54260;DHT22;40172;53.022;7.012;2022-12-20T07:24:50;9.60;99.90
54260;DHT22;40172;53.022;7.012;2022-12-20T07:27:16;9.50;99.90
54260;DHT22;40172;53.022;7.012;2022-12-20T07:29:42;9.60;99.90
54260;DHT22;40172;53.022;7.012;2022-12-20T07:32:08;9.50;99.90
54260;DHT22;40172;53.022;7.012;2022-12-20T07:34:35;9.50;99.90
54260;DHT22;40172;53.022;7.012;2022-12-20T07:37:01;9.50;99.90
54260;DHT22;40172;53.022;7.012;2022-12-20T07:39:27;9.50;99.90
54260;DHT22;40172;53.022;7.012;2022-12-20T07:41:53;9.00;99.90
54260;DHT22;40172;53.022;7.012;2022-12-20T07:44:20;9.50;99.90
54260;DHT22;40172;53.022;7.012;2022-12-20T07:46:45;9.50;99.90
54260;DHT22;40172;53.022;7.012;2022-12-20T07:49:12;9.50;99.90
54260;DHT22;40172;53.022;7.012;2022-12-20T07:51:41;9.40;99.90
54260;DHT22;40172;53.022;7.012;2022-12-20T07:54:34;9.50;99.90
54260;DHT22;40172;53.022;7.012;2022-12-20T07:57:14;9.50;99.90
54260;DHT22;40172;53.022;7.012;2022-12-20T07:59:44;9.40;99.90
54260;DHT22;40172;53.022;7.012;2022-12-20T08:02:16;9.40;99.90
54260;DHT22;40172;53.022;7.012;2022-12-20T08:04:45;9.50;99.90
54260;DHT22;40172;53.022;7.012;2022-12-20T08:07:11;9.50;99.90
54260;DHT22;40172;53.022;7.012;2022-12-20T08:09:39;9.50;99.90
54260;DHT22;40172;53.022;7.012;2022-12-20T08:12:06;9.40;99.90
54260;DHT22;40172;53.022;7.012;2022-12-20T08:14:33;9.50;99.90
54260;DHT22;40172;53.022;7.012;2022-12-20T08:16:58;9.50;99.90
54260;DHT22;40172;53.022;7.012;2022-12-20T08:19:24;9.60;99.90
54260;DHT22;40172;53.022;7.012;2022-12-20T08:21:50;9.50;99.90
54260;DHT22;40172;53.022;7.012;2022-12-20T08:24:15;9.50;99.90
54260;DHT22;40172;53.022;7.012;2022-12-20T08:26:41;9.60;99.90
54260;DHT22;40172;53.022;7.012;2022-12-20T08:29:07;9.60;99.90
54260;DHT22;40172;53.022;7.012;2022-12-20T08:31:37;9.50;99.90
54260;DHT22;40172;53.022;7.012;2022-12-20T08:34:03;9.70;99.90
54260;DHT22;40172;53.022;7.012;2022-12-20T08:36:28;9.70;99.90
54260;DHT22;40172;53.022;7.012;2022-12-20T08:38:54;9.70;99.90
54260;DHT22;40172;53.022;7.012;2022-12-20T08:41:20;9.70;99.90
54260;DHT22;40172;53.022;7.012;2022-12-20T08:43:45;9.70;99.90
54260;DHT22;40172;53.022;7.012;2022-12-20T08:46:11;9.80;99.90
54260;DHT22;40172;53.022;7.012;2022-12-20T08:48:37;9.30;99.90
54260;DHT22;40172;53.022;7.012;2022-12-20T08:51:05;9.80;99.90
54260;DHT22;40172;53.022;7.012;2022-12-20T08:53:32;9.80;99.90
54260;DHT22;40172;53.022;7.012;2022-12-20T08:56:04;9.90;99.90
54260;DHT22;40172;53.022;7.012;2022-12-20T08:58:31;9.90;99.90
54260;DHT22;40172;53.022;7.012;2022-12-20T09:01:00;9.80;99.90
54260;DHT22;40172;53.022;7.012;2022-12-20T09:03:28;9.90;99.90
54260;DHT22;40172;53.022;7.012;2022-12-20T09:05:54;9.90;99.90
54260;DHT22;40172;53.022;7.012;2022-12-20T09:08:20;9.90;99.90
54260;DHT22;40172;53.022;7.012;2022-12-20T09:10:45;9.90;99.90
54260;DHT22;40172;53.022;7.012;2022-12-20T09:13:11;9.90;99.90
54260;DHT22;40172;53.022;7.012;2022-12-20T09:15:37;9.90;99.90
54260;DHT22;40172;53.022;7.012;2022-12-20T09:18:03;10.00;99.90
54260;DHT22;40172;53.022;7.012;2022-12-20T09:20:29;10.00;99.90
54260;DHT22;40172;53.022;7.012;2022-12-20T09:22:54;10.00;99.90
54260;DHT22;40172;53.022;7.012;2022-12-20T09:25:20;10.00;99.90
54260;DHT22;40172;53.022;7.012;2022-12-20T09:27:46;10.00;99.90
54260;DHT22;40172;53.022;7.012;2022-12-20T09:30:12;10.00;99.90
54260;DHT22;40172;53.022;7.012;2022-12-20T09:32:37;10.00;99.90
54260;DHT22;40172;53.022;7.012;2022-12-20T09:35:04;10.10;99.90
54260;DHT22;40172;53.022;7.012;2022-12-20T09:37:30;10.10;99.90
54260;DHT22;40172;53.022;7.012;2022-12-20T09:39:56;10.20;99.90
54260;DHT22;40172;53.022;7.012;2022-12-20T09:42:25;10.20;99.90
54260;DHT22;40172;53.022;7.012;2022-12-20T09:44:51;10.30;99.90
54260;DHT22;40172;53.022;7.012;2022-12-20T09:47:20;10.40;99.90
54260;DHT22;40172;53.022;7.012;2022-12-20T09:49:50;10.30;99.90
54260;DHT22;40172;53.022;7.012;2022-12-20T09:55:46;10.40;99.90
54260;DHT22;40172;53.022;7.012;2022-12-20T10:01:13;10.40;99.90
54260;DHT22;40172;53.022;7.012;2022-12-20T10:03:40;10.40;99.90
54260;DHT22;40172;53.022;7.012;2022-12-20T10:09:04;10.40;99.90
54260;DHT22;40172;53.022;7.012;2022-12-20T10:16:57;10.40;99.90
54260;DHT22;40172;53.022;7.012;2022-12-20T10:19:52;10.40;99.90
54260;DHT22;40172;53.022;7.012;2022-12-20T10:22:27;10.30;99.90
54260;DHT22;40172;53.022;7.012;2022-12-20T10:25:00;10.30;99.90
54260;DHT22;40172;53.022;7.012;2022-12-20T10:27:26;10.30;99.90
54260;DHT22;40172;53.022;7.012;2022-12-20T10:29:52;10.20;99.90
54260;DHT22;40172;53.022;7.012;2022-12-20T10:32:20;10.20;99.90
54260;DHT22;40172;53.022;7.012;2022-12-20T10:40:30;9.80;99.90
54260;DHT22;40172;53.022;7.012;2022-12-20T10:42:57;10.10;99.90
54260;DHT22;40172;53.022;7.012;2022-12-20T10:47:49;10.00;99.90
54260;DHT22;40172;53.022;7.012;2022-12-20T10:50:18;10.00;99.90
54260;DHT22;40172;53.022;7.012;2022-12-20T10:52:45;10.10;99.90
54260;DHT22;40172;53.022;7.012;2022-12-20T10:55:38;9.90;99.90
54260;DHT22;40172;53.022;7.012;2022-12-20T10:58:10;9.80;99.90
54260;DHT22;40172;53.022;7.012;2022-12-20T11:00:37;9.90;99.90
54260;DHT22;40172;53.022;7.012;2022-12-20T11:03:16;10.60;99.90
54260;DHT22;40172;53.022;7.012;2022-12-20T11:06:14;9.80;99.90
54260;DHT22;40172;53.022;7.012;2022-12-20T11:08:40;9.80;99.90
54260;DHT22;40172;53.022;7.012;2022-12-20T11:11:13;9.90;99.90
54260;DHT22;40172;53.022;7.012;2022-12-20T11:13:40;10.20;99.90
54260;DHT22;40172;53.022;7.012;2022-12-20T11:16:42;9.90;99.90
54260;DHT22;40172;53.022;7.012;2022-12-20T11:19:29;9.90;99.90
54260;DHT22;40172;53.022;7.012;2022-12-20T11:22:00;10.00;99.90
54260;DHT22;40172;53.022;7.012;2022-12-20T11:24:52;9.90;99.90
54260;DHT22;40172;53.022;7.012;2022-12-20T11:30:08;9.90;99.90
54260;DHT22;40172;53.022;7.012;2022-12-20T11:33:21;10.00;99.90
54260;DHT22;40172;53.022;7.012;2022-12-20T11:36:01;9.90;99.90
54260;DHT22;40172;53.022;7.012;2022-12-20T11:38:45;10.00;99.90
54260;DHT22;40172;53.022;7.012;2022-12-20T11:41:27;9.90;99.90
54260;DHT22;40172;53.022;7.012;2022-12-20T11:43:59;10.00;99.90
54260;DHT22;40172;53.022;7.012;2022-12-20T11:46:31;9.90;99.90
54260;DHT22;40172;53.022;7.012;2022-12-20T11:52:36;9.90;99.90
54260;DHT22;40172;53.022;7.012;2022-12-20T11:58:02;10.00;99.90
54260;DHT22;40172;53.022;7.012;2022-12-20T12:00:31;9.90;99.90
54260;DHT22;40172;53.022;7.012;2022-12-20T12:03:13;9.80;99.90
54260;DHT22;40172;53.022;7.012;2022-12-20T12:05:42;10.00;99.90
54260;DHT22;40172;53.022;7.012;2022-12-20T12:08:13;10.10;99.90
54260;DHT22;40172;53.022;7.012;2022-12-20T12:10:54;10.00;99.90
54260;DHT22;40172;53.022;7.012;2022-12-20T12:13:26;10.00;99.90
54260;DHT22;40172;53.022;7.012;2022-12-20T12:18:38;10.00;99.90
54260;DHT22;40172;53.022;7.012;2022-12-20T12:26:23;10.00;99.90
54260;DHT22;40172;53.022;7.012;2022-12-20T12:29:02;10.10;99.90
54260;DHT22;40172;53.022;7.012;2022-12-20T12:45:36;10.00;99.90
54260;DHT22;40172;53.022;7.012;2022-12-20T12:48:23;10.00;99.90
54260;DHT22;40172;53.022;7.012;2022-12-20T12:50:52;10.00;99.90
54260;DHT22;40172;53.022;7.012;2022-12-20T12:55:48;10.00;99.90
54260;DHT22;40172;53.022;7.012;2022-12-20T13:03:16;10.10;99.90
54260;DHT22;40172;53.022;7.012;2022-12-20T13:08:50;10.20;99.90
54260;DHT22;40172;53.022;7.012;2022-12-20T13:11:35;10.10;99.90
54260;DHT22;40172;53.022;7.012;2022-12-20T13:19:38;10.00;99.90
54260;DHT22;40172;53.022;7.012;2022-12-20T13:24:57;9.90;99.90
54260;DHT22;40172;53.022;7.012;2022-12-20T13:27:28;9.90;99.90
54260;DHT22;40172;53.022;7.012;2022-12-20T13:40:39;10.00;99.90
54260;DHT22;40172;53.022;7.012;2022-12-20T13:43:25;9.90;99.90
54260;DHT22;40172;53.022;7.012;2022-12-20T13:48:35;9.90;99.90
54260;DHT22;40172;53.022;7.012;2022-12-20T13:51:03;9.80;99.90
54260;DHT22;40172;53.022;7.012;2022-12-20T13:53:29;9.80;99.90
54260;DHT22;40172;53.022;7.012;2022-12-20T13:55:55;9.80;99.90
54260;DHT22;40172;53.022;7.012;2022-12-20T13:58:27;9.90;99.90
54260;DHT22;40172;53.022;7.012;2022-12-20T14:01:04;10.00;99.90
54260;DHT22;40172;53.022;7.012;2022-12-20T14:03:30;9.90;99.90
54260;DHT22;40172;53.022;7.012;2022-12-20T14:06:00;9.90;99.90
54260;DHT22;40172;53.022;7.012;2022-12-20T14:08:35;9.90;99.90
54260;DHT22;40172;53.022;7.012;2022-12-20T14:11:23;9.90;99.90
54260;DHT22;40172;53.022;7.012;2022-12-20T14:16:22;9.80;99.90
54260;DHT22;40172;53.022;7.012;2022-12-20T14:19:04;9.80;99.90
54260;DHT22;40172;53.022;7.012;2022-12-20T14:21:34;9.90;99.90
54260;DHT22;40172;53.022;7.012;2022-12-20T14:24:01;10.00;99.90
54260;DHT22;40172;53.022;7.012;2022-12-20T14:26:29;9.90;99.90
54260;DHT22;40172;53.022;7.012;2022-12-20T14:28:58;9.90;99.90
54260;DHT22;40172;53.022;7.012;2022-12-20T14:36:47;9.90;99.90
54260;DHT22;40172;53.022;7.012;2022-12-20T14:39:28;9.90;99.90
54260;DHT22;40172;53.022;7.012;2022-12-20T14:44:32;9.80;99.90
54260;DHT22;40172;53.022;7.012;2022-12-20T14:47:03;9.80;99.90
54260;DHT22;40172;53.022;7.012;2022-12-20T14:49:37;9.90;99.90
54260;DHT22;40172;53.022;7.012;2022-12-20T14:52:25;9.90;99.90
54260;DHT22;40172;53.022;7.012;2022-12-20T14:57:24;9.80;99.90
54260;DHT22;40172;53.022;7.012;2022-12-20T15:13:39;9.80;99.90
54260;DHT22;40172;53.022;7.012;2022-12-20T15:19:08;9.90;99.90
54260;DHT22;40172;53.022;7.012;2022-12-20T15:21:36;9.80;99.90
54260;DHT22;40172;53.022;7.012;2022-12-20T15:24:05;9.80;99.90
54260;DHT22;40172;53.022;7.012;2022-12-20T15:26:34;9.80;99.90
54260;DHT22;40172;53.022;7.012;2022-12-20T15:29:00;9.70;99.90
54260;DHT22;40172;53.022;7.012;2022-12-20T15:31:26;9.70;99.90
54260;DHT22;40172;53.022;7.012;2022-12-20T15:33:53;9.70;99.90
54260;DHT22;40172;53.022;7.012;2022-12-20T15:36:24;9.70;99.90
54260;DHT22;40172;53.022;7.012;2022-12-20T15:38:54;9.90;99.90
54260;DHT22;40172;53.022;7.012;2022-12-20T15:41:23;9.70;99.90
54260;DHT22;40172;53.022;7.012;2022-12-20T15:43:58;9.80;99.90
54260;DHT22;40172;53.022;7.012;2022-12-20T15:46:25;10.40;99.90
54260;DHT22;40172;53.022;7.012;2022-12-20T15:48:52;9.80;99.90
54260;DHT22;40172;53.022;7.012;2022-12-20T15:51:32;9.90;99.90
54260;DHT22;40172;53.022;7.012;2022-12-20T15:54:00;9.90;99.90
54260;DHT22;40172;53.022;7.012;2022-12-20T15:56:27;9.90;99.90
54260;DHT22;40172;53.022;7.012;2022-12-20T15:58:53;9.90;99.90
54260;DHT22;40172;53.022;7.012;2022-12-20T16:01:28;9.90;99.90
54260;DHT22;40172;53.022;7.012;2022-12-20T16:03:55;9.80;99.90
54260;DHT22;40172;53.022;7.012;2022-12-20T16:06:21;9.80;99.90
54260;DHT22;40172;53.022;7.012;2022-12-20T16:08:47;9.80;99.90
54260;DHT22;40172;53.022;7.012;2022-12-20T16:11:22;9.80;99.90
54260;DHT22;40172;53.022;7.012;2022-12-20T16:13:48;9.90;99.90
54260;DHT22;40172;53.022;7.012;2022-12-20T16:16:19;9.80;99.90
54260;DHT22;40172;53.022;7.012;2022-12-20T16:18:45;9.90;99.90
54260;DHT22;40172;53.022;7.012;2022-12-20T16:21:19;9.90;99.90
54260;DHT22;40172;53.022;7.012;2022-12-20T16:23:45;9.80;99.90
54260;DHT22;40172;53.022;7.012;2022-12-20T16:26:15;9.80;99.90
54260;DHT22;40172;53.022;7.012;2022-12-20T16:28:41;9.70;99.90
54260;DHT22;40172;53.022;7.012;2022-12-20T16:33:45;9.80;99.90
54260;DHT22;40172;53.022;7.012;2022-12-20T16:36:11;9.70;99.90
54260;DHT22;40172;53.022;7.012;2022-12-20T16:38:37;9.70;99.90
54260;DHT22;40172;53.022;7.012;2022-12-20T16:41:17;9.90;99.90
54260;DHT22;40172;53.022;7.012;2022-12-20T16:43:44;9.70;99.90
54260;DHT22;40172;53.022;7.012;2022-12-20T16:46:11;9.80;99.90
54260;DHT22;40172;53.022;7.012;2022-12-20T16:48:37;9.70;99.90
54260;DHT22;40172;53.022;7.012;2022-12-20T16:51:03;9.70;99.90
54260;DHT22;40172;53.022;7.012;2022-12-20T16:53:28;9.70;99.90
54260;DHT22;40172;53.022;7.012;2022-12-20T16:55:54;9.90;99.90
54260;DHT22;40172;53.022;7.012;2022-12-20T16:58:19;9.80;99.90
54260;DHT22;40172;53.022;7.012;2022-12-20T17:00:46;9.90;99.90
54260;DHT22;40172;53.022;7.012;2022-12-20T17:03:11;9.70;99.90
54260;DHT22;40172;53.022;7.012;2022-12-20T17:05:38;9.90;99.90
54260;DHT22;40172;53.022;7.012;2022-12-20T17:08:04;9.80;99.90
54260;DHT22;40172;53.022;7.012;2022-12-20T17:10:30;9.80;99.90
54260;DHT22;40172;53.022;7.012;2022-12-20T17:12:56;9.70;99.90
54260;DHT22;40172;53.022;7.012;2022-12-20T17:15:24;9.90;99.90
54260;DHT22;40172;53.022;7.012;2022-12-20T17:17:51;9.50;99.90
54260;DHT22;40172;53.022;7.012;2022-12-20T17:20:18;9.90;99.90
54260;DHT22;40172;53.022;7.012;2022-12-20T17:22:47;9.70;99.90
54260;DHT22;40172;53.022;7.012;2022-12-20T17:25:22;9.80;99.90
54260;DHT22;40172;53.022;7.012;2022-12-20T17:27:49;9.70;99.90
54260;DHT22;40172;53.022;7.012;2022-12-20T17:30:15;9.60;99.90
54260;DHT22;40172;53.022;7.012;2022-12-20T17:32:42;9.70;99.90
54260;DHT22;40172;53.022;7.012;2022-12-20T17:35:28;9.70;99.90
54260;DHT22;40172;53.022;7.012;2022-12-20T17:37:57;9.70;99.90
54260;DHT22;40172;53.022;7.012;2022-12-20T17:40:25;9.50;99.90
54260;DHT22;40172;53.022;7.012;2022-12-20T17:42:51;9.70;99.90
54260;DHT22;40172;53.022;7.012;2022-12-20T17:45:31;9.60;99.90
54260;DHT22;40172;53.022;7.012;2022-12-20T17:47:57;9.70;99.90
54260;DHT22;40172;53.022;7.012;2022-12-20T17:50:24;9.80;99.90
54260;DHT22;40172;53.022;7.012;2022-12-20T17:52:51;9.80;99.90
54260;DHT22;40172;53.022;7.012;2022-12-20T17:55:27;9.70;99.90
54260;DHT22;40172;53.022;7.012;2022-12-20T17:57:54;9.70;99.90
54260;DHT22;40172;53.022;7.012;2022-12-20T18:00:28;9.80;99.90
54260;DHT22;40172;53.022;7.012;2022-12-20T18:02:54;9.80;99.90
54260;DHT22;40172;53.022;7.012;2022-12-20T18:05:22;9.80;99.90
54260;DHT22;40172;53.022;7.012;2022-12-20T18:07:54;9.80;99.90
54260;DHT22;40172;53.022;7.012;2022-12-20T18:10:22;9.20;99.90